Drew, Louisiana
Current Conditions -  °F | °C
As of 5:53 AM on Thursday 27 Nov 2014 (Local Time) from KMLU Reporting Station
Clear Clear  
Wind Chill: 37°   Ceiling: Unl
Heat Index: 43°   Visibility: 10mi
Dew Point: 30°   Wind: 12mph
Humidity: 60%   Direction: 350°N
Pressure: 30.45"   Gusts: NA
Location:  32.5473°N, 92.2007°W
Report Text: KMLU 271153Z 35010KT 10SM CLR 06/M01 A3045 RMK AO2 SLP310 T00611011 10089 20056 53023
Loading
Personal Weather Stations






























Interactive Weather Map New forecast layout! Learn more

10-Day Weather Forecast

Advertisements
Track Severe Weather on mobile